sensor_id;sensor_type;location;lat;lon;timestamp;temperature;humidity
49319;DHT22;35818;44.498;0.166;2022-08-24T00:43:18;20.90;92.90
49319;DHT22;35818;44.498;0.166;2022-08-24T00:50:29;20.90;93.10
49319;DHT22;35818;44.498;0.166;2022-08-24T00:53:50;20.90;93.20
49319;DHT22;35818;44.498;0.166;2022-08-24T01:00:20;20.70;94.30
49319;DHT22;35818;44.498;0.166;2022-08-24T01:07:05;20.50;94.80
49319;DHT22;35818;44.498;0.166;2022-08-24T01:10:20;20.50;95.00
49319;DHT22;35818;44.498;0.166;2022-08-24T01:13:36;20.40;95.10
49319;DHT22;35818;44.498;0.166;2022-08-24T01:17:08;20.40;95.40
49319;DHT22;35818;44.498;0.166;2022-08-24T01:20:35;20.30;95.50
49319;DHT22;35818;44.498;0.166;2022-08-24T01:24:17;20.30;95.80
49319;DHT22;35818;44.498;0.166;2022-08-24T01:30:47;20.20;95.90
49319;DHT22;35818;44.498;0.166;2022-08-24T01:33:51;20.10;96.00
49319;DHT22;35818;44.498;0.166;2022-08-24T01:37:22;20.10;96.30
49319;DHT22;35818;44.498;0.166;2022-08-24T01:40:50;20.10;96.80
49319;DHT22;35818;44.498;0.166;2022-08-24T01:43:35;20.00;97.00
49319;DHT22;35818;44.498;0.166;2022-08-24T01:47:20;20.00;97.10
49319;DHT22;35818;44.498;0.166;2022-08-24T01:51:04;20.00;97.40
49319;DHT22;35818;44.498;0.166;2022-08-24T01:54:31;20.00;97.40
49319;DHT22;35818;44.498;0.166;2022-08-24T01:57:45;20.00;97.50
49319;DHT22;35818;44.498;0.166;2022-08-24T02:01:00;19.90;97.40
49319;DHT22;35818;44.498;0.166;2022-08-24T02:07:33;19.90;97.30
49319;DHT22;35818;44.498;0.166;2022-08-24T02:13:46;19.90;97.30
49319;DHT22;35818;44.498;0.166;2022-08-24T02:17:24;19.90;97.30
49319;DHT22;35818;44.498;0.166;2022-08-24T02:20:19;19.90;97.40
49319;DHT22;35818;44.498;0.166;2022-08-24T02:23:13;19.90;97.50
49319;DHT22;35818;44.498;0.166;2022-08-24T02:26:33;19.90;97.60
49319;DHT22;35818;44.498;0.166;2022-08-24T02:33:23;19.80;97.30
49319;DHT22;35818;44.498;0.166;2022-08-24T02:36:16;19.90;97.30
49319;DHT22;35818;44.498;0.166;2022-08-24T02:39:30;19.90;97.10
49319;DHT22;35818;44.498;0.166;2022-08-24T02:49:28;20.00;96.40
49319;DHT22;35818;44.498;0.166;2022-08-24T02:52:36;19.90;96.20
49319;DHT22;35818;44.498;0.166;2022-08-24T02:55:49;19.90;96.20
49319;DHT22;35818;44.498;0.166;2022-08-24T02:59:07;19.80;96.20
49319;DHT22;35818;44.498;0.166;2022-08-24T03:05:20;19.60;96.40
49319;DHT22;35818;44.498;0.166;2022-08-24T03:08:39;19.50;97.10
49319;DHT22;35818;44.498;0.166;2022-08-24T03:11:43;19.50;98.10
49319;DHT22;35818;44.498;0.166;2022-08-24T03:14:23;19.40;98.50
49319;DHT22;35818;44.498;0.166;2022-08-24T03:17:21;19.40;98.40
49319;DHT22;35818;44.498;0.166;2022-08-24T03:27:18;19.30;98.70
49319;DHT22;35818;44.498;0.166;2022-08-24T03:30:21;19.20;98.70
49319;DHT22;35818;44.498;0.166;2022-08-24T03:33:15;19.20;99.10
49319;DHT22;35818;44.498;0.166;2022-08-24T03:36:02;19.20;99.10
49319;DHT22;35818;44.498;0.166;2022-08-24T03:39:26;19.10;99.20
49319;DHT22;35818;44.498;0.166;2022-08-24T03:42:43;19.10;99.40
49319;DHT22;35818;44.498;0.166;2022-08-24T03:45:13;19.00;99.50
49319;DHT22;35818;44.498;0.166;2022-08-24T03:48:25;19.00;99.50
49319;DHT22;35818;44.498;0.166;2022-08-24T03:52:10;19.00;99.70
49319;DHT22;35818;44.498;0.166;2022-08-24T03:54:56;19.00;99.60
49319;DHT22;35818;44.498;0.166;2022-08-24T03:57:44;19.00;99.60
49319;DHT22;35818;44.498;0.166;2022-08-24T04:00:54;18.90;99.40
49319;DHT22;35818;44.498;0.166;2022-08-24T04:04:19;18.90;99.30
49319;DHT22;35818;44.498;0.166;2022-08-24T04:07:31;18.90;99.10
49319;DHT22;35818;44.498;0.166;2022-08-24T04:10:36;18.90;99.30
49319;DHT22;35818;44.498;0.166;2022-08-24T04:13:06;18.90;99.20
49319;DHT22;35818;44.498;0.166;2022-08-24T04:15:49;18.90;99.20
49319;DHT22;35818;44.498;0.166;2022-08-24T04:24:42;18.90;99.30
49319;DHT22;35818;44.498;0.166;2022-08-24T04:28:27;18.90;99.30
49319;DHT22;35818;44.498;0.166;2022-08-24T04:31:42;18.90;99.10
49319;DHT22;35818;44.498;0.166;2022-08-24T04:34:59;18.90;99.20
49319;DHT22;35818;44.498;0.166;2022-08-24T04:38:04;18.90;99.00
49319;DHT22;35818;44.498;0.166;2022-08-24T04:41:08;18.90;98.80
49319;DHT22;35818;44.498;0.166;2022-08-24T04:44:09;19.00;98.70
49319;DHT22;35818;44.498;0.166;2022-08-24T04:47:26;19.00;98.60
49319;DHT22;35818;44.498;0.166;2022-08-24T04:50:17;19.00;98.40
49319;DHT22;35818;44.498;0.166;2022-08-24T04:53:11;18.90;98.20
49319;DHT22;35818;44.498;0.166;2022-08-24T04:56:39;18.90;98.20
49319;DHT22;35818;44.498;0.166;2022-08-24T05:00:09;18.90;98.00
49319;DHT22;35818;44.498;0.166;2022-08-24T05:03:01;18.80;98.10
49319;DHT22;35818;44.498;0.166;2022-08-24T05:05:46;18.70;98.40
49319;DHT22;35818;44.498;0.166;2022-08-24T05:13:58;18.50;99.00
49319;DHT22;35818;44.498;0.166;2022-08-24T05:22:14;18.50;99.20
49319;DHT22;35818;44.498;0.166;2022-08-24T05:30:26;18.60;99.80
49319;DHT22;35818;44.498;0.166;2022-08-24T05:33:59;18.60;99.80
49319;DHT22;35818;44.498;0.166;2022-08-24T05:37:05;18.60;99.60
49319;DHT22;35818;44.498;0.166;2022-08-24T05:42:31;18.60;99.30
49319;DHT22;35818;44.498;0.166;2022-08-24T05:45:35;18.60;99.30
49319;DHT22;35818;44.498;0.166;2022-08-24T05:48:29;18.60;99.20
49319;DHT22;35818;44.498;0.166;2022-08-24T05:51:08;18.60;99.10
49319;DHT22;35818;44.498;0.166;2022-08-24T05:54:09;18.60;99.10
49319;DHT22;35818;44.498;0.166;2022-08-24T05:59:15;18.70;99.00
49319;DHT22;35818;44.498;0.166;2022-08-24T06:01:42;18.70;99.20
49319;DHT22;35818;44.498;0.166;2022-08-24T06:04:08;18.80;98.90
49319;DHT22;35818;44.498;0.166;2022-08-24T06:06:34;18.90;98.70
49319;DHT22;35818;44.498;0.166;2022-08-24T06:09:00;19.00;98.50
49319;DHT22;35818;44.498;0.166;2022-08-24T06:11:27;19.10;98.10
49319;DHT22;35818;44.498;0.166;2022-08-24T06:13:56;19.10;97.80
49319;DHT22;35818;44.498;0.166;2022-08-24T06:16:22;19.20;97.70
49319;DHT22;35818;44.498;0.166;2022-08-24T06:18:49;19.20;97.40
49319;DHT22;35818;44.498;0.166;2022-08-24T06:21:19;19.30;97.30
49319;DHT22;35818;44.498;0.166;2022-08-24T06:23:45;19.30;97.20
49319;DHT22;35818;44.498;0.166;2022-08-24T06:26:12;19.40;97.10
49319;DHT22;35818;44.498;0.166;2022-08-24T06:28:57;19.50;96.90
49319;DHT22;35818;44.498;0.166;2022-08-24T06:31:25;19.60;96.80
49319;DHT22;35818;44.498;0.166;2022-08-24T06:33:52;19.60;96.60
49319;DHT22;35818;44.498;0.166;2022-08-24T06:36:18;19.60;96.60
49319;DHT22;35818;44.498;0.166;2022-08-24T06:38:44;19.70;96.50
49319;DHT22;35818;44.498;0.166;2022-08-24T06:41:10;19.80;96.60
49319;DHT22;35818;44.498;0.166;2022-08-24T06:43:36;19.80;96.40
49319;DHT22;35818;44.498;0.166;2022-08-24T06:46:03;19.90;96.30
49319;DHT22;35818;44.498;0.166;2022-08-24T06:48:29;20.00;96.00
49319;DHT22;35818;44.498;0.166;2022-08-24T06:50:56;20.10;95.70
49319;DHT22;35818;44.498;0.166;2022-08-24T06:53:22;20.20;95.50
49319;DHT22;35818;44.498;0.166;2022-08-24T06:55:54;20.30;95.30
49319;DHT22;35818;44.498;0.166;2022-08-24T06:58:21;20.40;95.10
49319;DHT22;35818;44.498;0.166;2022-08-24T07:00:47;20.50;95.00
49319;DHT22;35818;44.498;0.166;2022-08-24T07:03:15;20.50;95.00
49319;DHT22;35818;44.498;0.166;2022-08-24T07:05:54;20.60;95.10
49319;DHT22;35818;44.498;0.166;2022-08-24T07:08:21;20.70;95.00
49319;DHT22;35818;44.498;0.166;2022-08-24T07:10:47;20.80;94.70
49319;DHT22;35818;44.498;0.166;2022-08-24T07:13:13;21.00;94.40
49319;DHT22;35818;44.498;0.166;2022-08-24T07:15:40;21.10;94.10
49319;DHT22;35818;44.498;0.166;2022-08-24T07:18:06;21.20;93.70
49319;DHT22;35818;44.498;0.166;2022-08-24T07:20:35;21.30;93.20
49319;DHT22;35818;44.498;0.166;2022-08-24T07:23:05;21.50;92.90
49319;DHT22;35818;44.498;0.166;2022-08-24T07:25:32;21.60;92.60
49319;DHT22;35818;44.498;0.166;2022-08-24T07:27:58;21.70;92.30
49319;DHT22;35818;44.498;0.166;2022-08-24T07:30:26;21.80;92.00
49319;DHT22;35818;44.498;0.166;2022-08-24T07:32:53;21.90;91.70
49319;DHT22;35818;44.498;0.166;2022-08-24T07:35:19;22.00;91.30
49319;DHT22;35818;44.498;0.166;2022-08-24T07:37:44;22.20;90.90
49319;DHT22;35818;44.498;0.166;2022-08-24T07:40:10;22.30;90.30
49319;DHT22;35818;44.498;0.166;2022-08-24T07:42:36;22.50;89.40
49319;DHT22;35818;44.498;0.166;2022-08-24T07:45:05;22.60;88.10
49319;DHT22;35818;44.498;0.166;2022-08-24T07:47:31;22.80;87.00
49319;DHT22;35818;44.498;0.166;2022-08-24T07:49:57;22.90;85.90
49319;DHT22;35818;44.498;0.166;2022-08-24T07:52:23;23.00;84.80
49319;DHT22;35818;44.498;0.166;2022-08-24T07:54:48;23.10;83.90
49319;DHT22;35818;44.498;0.166;2022-08-24T07:57:14;23.20;83.60
49319;DHT22;35818;44.498;0.166;2022-08-24T07:59:40;23.20;82.50
49319;DHT22;35818;44.498;0.166;2022-08-24T08:02:07;23.30;82.40
49319;DHT22;35818;44.498;0.166;2022-08-24T08:04:34;23.30;82.00
49319;DHT22;35818;44.498;0.166;2022-08-24T08:07:00;23.20;82.00
49319;DHT22;35818;44.498;0.166;2022-08-24T08:09:26;23.30;81.80
49319;DHT22;35818;44.498;0.166;2022-08-24T08:11:52;23.40;81.50
49319;DHT22;35818;44.498;0.166;2022-08-24T08:14:18;23.50;81.40
49319;DHT22;35818;44.498;0.166;2022-08-24T08:16:44;23.60;81.30
49319;DHT22;35818;44.498;0.166;2022-08-24T08:19:10;23.70;80.70
49319;DHT22;35818;44.498;0.166;2022-08-24T08:21:45;23.80;80.40
49319;DHT22;35818;44.498;0.166;2022-08-24T08:24:30;23.90;79.80
49319;DHT22;35818;44.498;0.166;2022-08-24T08:26:56;24.00;79.10
49319;DHT22;35818;44.498;0.166;2022-08-24T08:29:24;24.10;78.30
49319;DHT22;35818;44.498;0.166;2022-08-24T08:31:50;24.30;77.50
49319;DHT22;35818;44.498;0.166;2022-08-24T08:34:17;24.40;76.60
49319;DHT22;35818;44.498;0.166;2022-08-24T08:36:43;24.50;76.00
49319;DHT22;35818;44.498;0.166;2022-08-24T08:39:11;24.60;75.60
49319;DHT22;35818;44.498;0.166;2022-08-24T08:52:48;25.30;72.80
49319;DHT22;35818;44.498;0.166;2022-08-24T09:06:16;25.90;70.70
49319;DHT22;35818;44.498;0.166;2022-08-24T09:11:36;26.30;69.50
49319;DHT22;35818;44.498;0.166;2022-08-24T09:22:19;27.20;67.30
49319;DHT22;35818;44.498;0.166;2022-08-24T09:30:12;27.90;63.50
49319;DHT22;35818;44.498;0.166;2022-08-24T10:00:17;31.00;53.40
49319;DHT22;35818;44.498;0.166;2022-08-24T10:03:23;31.30;52.50
49319;DHT22;35818;44.498;0.166;2022-08-24T10:06:30;31.60;51.70
49319;DHT22;35818;44.498;0.166;2022-08-24T10:12:28;32.20;50.10
49319;DHT22;35818;44.498;0.166;2022-08-24T10:15:05;32.50;49.40
49319;DHT22;35818;44.498;0.166;2022-08-24T10:17:37;32.80;48.70
49319;DHT22;35818;44.498;0.166;2022-08-24T10:20:23;33.60;48.10
49319;DHT22;35818;44.498;0.166;2022-08-24T10:31:16;38.90;41.10
49319;DHT22;35818;44.498;0.166;2022-08-24T10:52:48;44.40;32.50
49319;DHT22;35818;44.498;0.166;2022-08-24T10:55:29;45.00;31.80
49319;DHT22;35818;44.498;0.166;2022-08-24T11:00:26;45.90;30.70
49319;DHT22;35818;44.498;0.166;2022-08-24T11:03:08;46.00;30.50
49319;DHT22;35818;44.498;0.166;2022-08-24T11:05:41;46.30;30.40
49319;DHT22;35818;44.498;0.166;2022-08-24T11:08:22;46.90;30.00
49319;DHT22;35818;44.498;0.166;2022-08-24T11:11:11;47.40;29.70
49319;DHT22;35818;44.498;0.166;2022-08-24T11:13:52;47.80;29.40
49319;DHT22;35818;44.498;0.166;2022-08-24T11:16:31;47.90;29.20
49319;DHT22;35818;44.498;0.166;2022-08-24T11:19:06;48.20;29.00
49319;DHT22;35818;44.498;0.166;2022-08-24T11:21:38;48.60;28.80
49319;DHT22;35818;44.498;0.166;2022-08-24T11:26:49;48.90;28.10
49319;DHT22;35818;44.498;0.166;2022-08-24T11:29:16;48.90;27.90
49319;DHT22;35818;44.498;0.166;2022-08-24T11:31:47;48.90;28.00
49319;DHT22;35818;44.498;0.166;2022-08-24T11:34:29;48.90;27.80
49319;DHT22;35818;44.498;0.166;2022-08-24T11:36:56;48.80;27.70
49319;DHT22;35818;44.498;0.166;2022-08-24T11:39:37;48.80;27.70
49319;DHT22;35818;44.498;0.166;2022-08-24T11:56:22;50.60;27.10
49319;DHT22;35818;44.498;0.166;2022-08-24T12:01:35;50.40;25.70
49319;DHT22;35818;44.498;0.166;2022-08-24T12:04:35;50.20;25.60
49319;DHT22;35818;44.498;0.166;2022-08-24T12:07:25;50.60;25.50
49319;DHT22;35818;44.498;0.166;2022-08-24T12:13:02;50.50;25.90
49319;DHT22;35818;44.498;0.166;2022-08-24T12:20:56;50.60;25.90
49319;DHT22;35818;44.498;0.166;2022-08-24T12:25:58;50.10;26.20
49319;DHT22;35818;44.498;0.166;2022-08-24T12:28:47;50.40;26.20
49319;DHT22;35818;44.498;0.166;2022-08-24T12:33:57;51.40;25.80
49319;DHT22;35818;44.498;0.166;2022-08-24T12:36:35;51.40;25.80
49319;DHT22;35818;44.498;0.166;2022-08-24T12:39:08;51.60;25.40
49319;DHT22;35818;44.498;0.166;2022-08-24T12:42:01;51.70;24.80
49319;DHT22;35818;44.498;0.166;2022-08-24T12:44:44;51.30;25.10
49319;DHT22;35818;44.498;0.166;2022-08-24T12:50:52;51.40;25.30
49319;DHT22;35818;44.498;0.166;2022-08-24T12:57:17;51.70;25.30
49319;DHT22;35818;44.498;0.166;2022-08-24T13:26:57;54.20;24.10
49319;DHT22;35818;44.498;0.166;2022-08-24T13:37:37;54.70;23.50
49319;DHT22;35818;44.498;0.166;2022-08-24T13:47:09;55.20;23.60
49319;DHT22;35818;44.498;0.166;2022-08-24T13:50:13;54.90;23.50
49319;DHT22;35818;44.498;0.166;2022-08-24T14:08:42;54.30;23.40
49319;DHT22;35818;44.498;0.166;2022-08-24T14:14:59;54.30;23.50
49319;DHT22;35818;44.498;0.166;2022-08-24T14:24:33;54.90;23.30
49319;DHT22;35818;44.498;0.166;2022-08-24T14:41:02;53.20;23.20
49319;DHT22;35818;44.498;0.166;2022-08-24T14:44:01;52.60;23.40
49319;DHT22;35818;44.498;0.166;2022-08-24T14:49:34;52.70;23.70
49319;DHT22;35818;44.498;0.166;2022-08-24T14:52:19;52.90;23.70
49319;DHT22;35818;44.498;0.166;2022-08-24T15:01:46;53.90;23.70
49319;DHT22;35818;44.498;0.166;2022-08-24T15:09:46;55.20;23.20
49319;DHT22;35818;44.498;0.166;2022-08-24T15:15:42;55.40;23.10
49319;DHT22;35818;44.498;0.166;2022-08-24T15:18:24;54.90;23.20
49319;DHT22;35818;44.498;0.166;2022-08-24T15:21:35;54.70;23.20
49319;DHT22;35818;44.498;0.166;2022-08-24T15:29:57;54.30;23.40
49319;DHT22;35818;44.498;0.166;2022-08-24T15:32:45;53.80;23.60
49319;DHT22;35818;44.498;0.166;2022-08-24T15:35:30;53.70;23.70
49319;DHT22;35818;44.498;0.166;2022-08-24T15:38:11;53.50;23.50
49319;DHT22;35818;44.498;0.166;2022-08-24T15:40:41;53.40;23.50
49319;DHT22;35818;44.498;0.166;2022-08-24T15:43:08;53.10;23.50
49319;DHT22;35818;44.498;0.166;2022-08-24T15:45:36;52.60;23.50
49319;DHT22;35818;44.498;0.166;2022-08-24T15:48:03;52.20;23.60
49319;DHT22;35818;44.498;0.166;2022-08-24T15:50:40;51.70;23.60
49319;DHT22;35818;44.498;0.166;2022-08-24T15:53:07;51.20;23.70
49319;DHT22;35818;44.498;0.166;2022-08-24T15:55:49;50.60;23.80
49319;DHT22;35818;44.498;0.166;2022-08-24T15:58:31;50.20;24.30
49319;DHT22;35818;44.498;0.166;2022-08-24T16:03:59;49.10;24.70
49319;DHT22;35818;44.498;0.166;2022-08-24T16:12:00;47.30;25.30
49319;DHT22;35818;44.498;0.166;2022-08-24T16:14:39;46.70;25.70
49319;DHT22;35818;44.498;0.166;2022-08-24T16:19:58;45.70;25.70
49319;DHT22;35818;44.498;0.166;2022-08-24T16:22:35;45.40;25.90
49319;DHT22;35818;44.498;0.166;2022-08-24T16:25:15;45.20;26.00
49319;DHT22;35818;44.498;0.166;2022-08-24T16:28:10;44.80;26.10
49319;DHT22;35818;44.498;0.166;2022-08-24T16:33:02;43.30;27.50
49319;DHT22;35818;44.498;0.166;2022-08-24T16:35:28;42.50;27.90
49319;DHT22;35818;44.498;0.166;2022-08-24T16:37:55;41.90;28.20
49319;DHT22;35818;44.498;0.166;2022-08-24T16:40:22;41.30;28.80
49319;DHT22;35818;44.498;0.166;2022-08-24T16:42:48;40.90;29.40
49319;DHT22;35818;44.498;0.166;2022-08-24T16:45:17;40.60;29.60
49319;DHT22;35818;44.498;0.166;2022-08-24T16:47:44;40.40;29.20
49319;DHT22;35818;44.498;0.166;2022-08-24T16:50:12;40.40;29.00
49319;DHT22;35818;44.498;0.166;2022-08-24T16:52:38;40.40;29.00
49319;DHT22;35818;44.498;0.166;2022-08-24T16:55:04;40.60;29.10
49319;DHT22;35818;44.498;0.166;2022-08-24T16:57:32;40.80;28.60
49319;DHT22;35818;44.498;0.166;2022-08-24T17:00:08;41.00;28.20
49319;DHT22;35818;44.498;0.166;2022-08-24T17:02:34;41.30;28.10
49319;DHT22;35818;44.498;0.166;2022-08-24T17:05:00;41.20;28.00
49319;DHT22;35818;44.498;0.166;2022-08-24T17:07:27;41.20;27.90
49319;DHT22;35818;44.498;0.166;2022-08-24T17:09:55;41.00;28.10
49319;DHT22;35818;44.498;0.166;2022-08-24T17:12:22;40.70;28.10
49319;DHT22;35818;44.498;0.166;2022-08-24T17:14:48;40.40;28.30
49319;DHT22;35818;44.498;0.166;2022-08-24T17:17:16;40.10;28.60
49319;DHT22;35818;44.498;0.166;2022-08-24T17:19:43;39.70;28.70
49319;DHT22;35818;44.498;0.166;2022-08-24T17:22:09;39.40;28.80
49319;DHT22;35818;44.498;0.166;2022-08-24T17:24:35;39.20;29.20
49319;DHT22;35818;44.498;0.166;2022-08-24T17:27:03;38.90;29.60
49319;DHT22;35818;44.498;0.166;2022-08-24T17:29:29;38.60;30.40
49319;DHT22;35818;44.498;0.166;2022-08-24T17:31:55;38.30;30.20
49319;DHT22;35818;44.498;0.166;2022-08-24T17:34:23;38.00;30.20
49319;DHT22;35818;44.498;0.166;2022-08-24T17:36:53;37.80;31.20
49319;DHT22;35818;44.498;0.166;2022-08-24T17:39:40;37.40;31.90
49319;DHT22;35818;44.498;0.166;2022-08-24T17:42:38;37.10;32.30
49319;DHT22;35818;44.498;0.166;2022-08-24T17:45:12;36.80;32.80
49319;DHT22;35818;44.498;0.166;2022-08-24T17:47:39;36.50;33.30
49319;DHT22;35818;44.498;0.166;2022-08-24T17:50:06;36.30;33.80
49319;DHT22;35818;44.498;0.166;2022-08-24T17:52:35;36.00;34.10
49319;DHT22;35818;44.498;0.166;2022-08-24T17:55:22;35.80;34.20
49319;DHT22;35818;44.498;0.166;2022-08-24T17:58:37;35.60;34.30
49319;DHT22;35818;44.498;0.166;2022-08-24T18:02:08;35.40;34.40
49319;DHT22;35818;44.498;0.166;2022-08-24T18:05:06;35.50;34.20
49319;DHT22;35818;44.498;0.166;2022-08-24T18:07:33;35.70;34.40
49319;DHT22;35818;44.498;0.166;2022-08-24T18:10:00;35.70;33.50
49319;DHT22;35818;44.498;0.166;2022-08-24T18:12:28;35.80;33.40
49319;DHT22;35818;44.498;0.166;2022-08-24T18:14:54;35.90;33.20
49319;DHT22;35818;44.498;0.166;2022-08-24T18:24:08;35.40;33.60
49319;DHT22;35818;44.498;0.166;2022-08-24T18:26:34;34.90;34.10
49319;DHT22;35818;44.498;0.166;2022-08-24T18:29:09;34.50;34.60
49319;DHT22;35818;44.498;0.166;2022-08-24T18:31:36;34.20;35.00
49319;DHT22;35818;44.498;0.166;2022-08-24T18:34:02;33.80;35.40
49319;DHT22;35818;44.498;0.166;2022-08-24T18:36:30;33.60;35.80
49319;DHT22;35818;44.498;0.166;2022-08-24T18:38:56;33.30;36.10
49319;DHT22;35818;44.498;0.166;2022-08-24T18:41:24;33.10;36.50
49319;DHT22;35818;44.498;0.166;2022-08-24T18:43:52;32.90;36.80
49319;DHT22;35818;44.498;0.166;2022-08-24T18:46:19;32.60;37.00
49319;DHT22;35818;44.498;0.166;2022-08-24T18:48:45;32.40;37.30
49319;DHT22;35818;44.498;0.166;2022-08-24T18:51:15;32.20;38.00
49319;DHT22;35818;44.498;0.166;2022-08-24T18:53:42;32.00;37.70
49319;DHT22;35818;44.498;0.166;2022-08-24T18:56:07;31.80;37.90
49319;DHT22;35818;44.498;0.166;2022-08-24T18:58:34;31.60;38.20
49319;DHT22;35818;44.498;0.166;2022-08-24T19:01:02;31.50;38.50
49319;DHT22;35818;44.498;0.166;2022-08-24T19:03:28;31.30;38.70
49319;DHT22;35818;44.498;0.166;2022-08-24T19:05:54;31.10;39.00
49319;DHT22;35818;44.498;0.166;2022-08-24T19:08:20;30.90;39.20
49319;DHT22;35818;44.498;0.166;2022-08-24T19:10:47;30.90;39.60
49319;DHT22;35818;44.498;0.166;2022-08-24T19:13:14;30.70;39.60
49319;DHT22;35818;44.498;0.166;2022-08-24T19:15:43;30.60;39.80
49319;DHT22;35818;44.498;0.166;2022-08-24T19:18:13;30.50;39.90
49319;DHT22;35818;44.498;0.166;2022-08-24T19:20:44;30.40;40.00
49319;DHT22;35818;44.498;0.166;2022-08-24T19:23:13;30.30;40.30
49319;DHT22;35818;44.498;0.166;2022-08-24T19:25:42;30.30;40.80
49319;DHT22;35818;44.498;0.166;2022-08-24T19:28:09;30.20;41.10
49319;DHT22;35818;44.498;0.166;2022-08-24T19:30:35;30.10;41.20
49319;DHT22;35818;44.498;0.166;2022-08-24T19:33:01;30.00;41.40
49319;DHT22;35818;44.498;0.166;2022-08-24T19:35:28;30.00;41.60
49319;DHT22;35818;44.498;0.166;2022-08-24T19:37:54;29.90;41.80
49319;DHT22;35818;44.498;0.166;2022-08-24T19:40:20;29.80;42.00
49319;DHT22;35818;44.498;0.166;2022-08-24T19:42:47;29.70;42.20
49319;DHT22;35818;44.498;0.166;2022-08-24T19:45:16;29.60;42.40
49319;DHT22;35818;44.498;0.166;2022-08-24T19:48:02;29.50;42.50
49319;DHT22;35818;44.498;0.166;2022-08-24T19:50:29;29.40;42.70
49319;DHT22;35818;44.498;0.166;2022-08-24T19:52:56;29.30;42.90
49319;DHT22;35818;44.498;0.166;2022-08-24T19:55:23;29.20;43.00
49319;DHT22;35818;44.498;0.166;2022-08-24T19:57:53;29.20;43.40
49319;DHT22;35818;44.498;0.166;2022-08-24T20:00:23;29.10;43.60
49319;DHT22;35818;44.498;0.166;2022-08-24T20:02:52;29.00;44.00
49319;DHT22;35818;44.498;0.166;2022-08-24T20:05:20;28.90;44.20
49319;DHT22;35818;44.498;0.166;2022-08-24T20:07:46;28.70;44.50
49319;DHT22;35818;44.498;0.166;2022-08-24T20:10:13;28.60;45.50
49319;DHT22;35818;44.498;0.166;2022-08-24T20:12:40;28.40;46.10
49319;DHT22;35818;44.498;0.166;2022-08-24T20:15:06;28.30;47.00
49319;DHT22;35818;44.498;0.166;2022-08-24T20:17:33;28.20;47.70
49319;DHT22;35818;44.498;0.166;2022-08-24T20:19:59;28.00;47.90
49319;DHT22;35818;44.498;0.166;2022-08-24T20:22:26;27.90;48.20
49319;DHT22;35818;44.498;0.166;2022-08-24T20:24:52;27.70;48.40
49319;DHT22;35818;44.498;0.166;2022-08-24T20:27:22;27.60;48.90
49319;DHT22;35818;44.498;0.166;2022-08-24T20:29:48;27.40;49.40
49319;DHT22;35818;44.498;0.166;2022-08-24T20:32:14;27.30;49.90
49319;DHT22;35818;44.498;0.166;2022-08-24T20:34:40;27.20;50.70
49319;DHT22;35818;44.498;0.166;2022-08-24T20:37:06;27.10;50.90
49319;DHT22;35818;44.498;0.166;2022-08-24T20:39:32;27.10;51.20
49319;DHT22;35818;44.498;0.166;2022-08-24T20:41:59;27.00;51.40
49319;DHT22;35818;44.498;0.166;2022-08-24T20:44:25;26.90;51.40
49319;DHT22;35818;44.498;0.166;2022-08-24T20:46:52;26.80;51.40
49319;DHT22;35818;44.498;0.166;2022-08-24T20:49:22;26.80;51.60
49319;DHT22;35818;44.498;0.166;2022-08-24T20:51:49;26.80;51.80
49319;DHT22;35818;44.498;0.166;2022-08-24T20:54:15;26.70;52.20
49319;DHT22;35818;44.498;0.166;2022-08-24T20:56:41;26.70;52.70
49319;DHT22;35818;44.498;0.166;2022-08-24T20:59:10;26.60;52.90
49319;DHT22;35818;44.498;0.166;2022-08-24T21:01:38;26.60;53.30
49319;DHT22;35818;44.498;0.166;2022-08-24T21:04:08;26.50;53.40
49319;DHT22;35818;44.498;0.166;2022-08-24T21:06:34;26.40;53.80
49319;DHT22;35818;44.498;0.166;2022-08-24T21:09:02;26.40;54.20
49319;DHT22;35818;44.498;0.166;2022-08-24T21:11:29;26.40;54.50
49319;DHT22;35818;44.498;0.166;2022-08-24T21:13:56;26.30;54.90
49319;DHT22;35818;44.498;0.166;2022-08-24T21:16:22;26.20;55.40
49319;DHT22;35818;44.498;0.166;2022-08-24T21:18:47;26.20;55.60
49319;DHT22;35818;44.498;0.166;2022-08-24T21:21:13;26.10;55.60
49319;DHT22;35818;44.498;0.166;2022-08-24T21:23:39;26.00;55.70
49319;DHT22;35818;44.498;0.166;2022-08-24T21:26:08;26.00;56.10
49319;DHT22;35818;44.498;0.166;2022-08-24T21:28:35;25.90;56.60
49319;DHT22;35818;44.498;0.166;2022-08-24T21:31:03;25.90;56.90
49319;DHT22;35818;44.498;0.166;2022-08-24T21:33:29;25.90;57.40
49319;DHT22;35818;44.498;0.166;2022-08-24T21:36:13;25.80;57.70
49319;DHT22;35818;44.498;0.166;2022-08-24T21:38:39;25.80;58.10
49319;DHT22;35818;44.498;0.166;2022-08-24T21:41:05;25.80;59.10
49319;DHT22;35818;44.498;0.166;2022-08-24T21:43:31;25.80;59.80
49319;DHT22;35818;44.498;0.166;2022-08-24T21:45:57;25.70;60.00
49319;DHT22;35818;44.498;0.166;2022-08-24T21:48:23;25.70;60.80
49319;DHT22;35818;44.498;0.166;2022-08-24T21:50:49;25.60;61.60
49319;DHT22;35818;44.498;0.166;2022-08-24T21:53:15;25.50;62.30
49319;DHT22;35818;44.498;0.166;2022-08-24T21:55:42;25.40;63.50
49319;DHT22;35818;44.498;0.166;2022-08-24T21:58:09;25.30;64.30
49319;DHT22;35818;44.498;0.166;2022-08-24T22:00:35;25.20;65.10
49319;DHT22;35818;44.498;0.166;2022-08-24T22:03:02;25.10;65.40
49319;DHT22;35818;44.498;0.166;2022-08-24T22:05:29;25.10;66.00
49319;DHT22;35818;44.498;0.166;2022-08-24T22:07:55;25.00;66.10
49319;DHT22;35818;44.498;0.166;2022-08-24T22:10:21;24.90;66.20
49319;DHT22;35818;44.498;0.166;2022-08-24T22:12:47;24.90;66.10
49319;DHT22;35818;44.498;0.166;2022-08-24T22:15:13;24.90;65.90
49319;DHT22;35818;44.498;0.166;2022-08-24T22:17:41;24.90;65.90
49319;DHT22;35818;44.498;0.166;2022-08-24T22:20:08;25.00;65.70
49319;DHT22;35818;44.498;0.166;2022-08-24T22:22:35;25.10;65.60
49319;DHT22;35818;44.498;0.166;2022-08-24T22:25:03;25.10;65.30
49319;DHT22;35818;44.498;0.166;2022-08-24T22:27:29;25.20;65.10
49319;DHT22;35818;44.498;0.166;2022-08-24T22:29:56;25.20;65.20
49319;DHT22;35818;44.498;0.166;2022-08-24T22:32:22;25.20;65.10
49319;DHT22;35818;44.498;0.166;2022-08-24T22:34:49;25.20;64.90
49319;DHT22;35818;44.498;0.166;2022-08-24T22:37:14;25.20;64.90
49319;DHT22;35818;44.498;0.166;2022-08-24T22:39:40;25.10;65.40
49319;DHT22;35818;44.498;0.166;2022-08-24T22:42:06;25.10;66.30
49319;DHT22;35818;44.498;0.166;2022-08-24T22:44:33;25.10;66.80
49319;DHT22;35818;44.498;0.166;2022-08-24T22:47:00;25.10;67.10
49319;DHT22;35818;44.498;0.166;2022-08-24T22:49:29;25.00;67.60
49319;DHT22;35818;44.498;0.166;2022-08-24T22:51:56;24.90;68.20
49319;DHT22;35818;44.498;0.166;2022-08-24T22:54:23;24.80;68.60
49319;DHT22;35818;44.498;0.166;2022-08-24T22:57:16;24.70;69.10
49319;DHT22;35818;44.498;0.166;2022-08-24T23:04:22;24.40;70.40